El Tari Airport


Codes: WATT/KOE
Name: El Tari Airport
City: Kupang-Timor Island
Country: Indonesia
Elevation: 335 ft.
Wikipedia:

Photos at El Tari Airport


   Photos courtesy of SpottingLog. You can add your own sightings and photos by signing up for a free trial today.



No photos found.

Weather at El Tari Airport


Time (UTC)DescriptionTempratureWindCloud coverageVisibilityPressureHumidity
26-Jun-2024 00:00Scattered Clouds26°C9 mph, E40%10000m1012hPa85%
26-Jun-2024 03:00Broken Clouds30°C2 mph, SE73%10000m1011hPa62%
26-Jun-2024 06:00Overcast Clouds31°C2 mph, S100%10000m1009hPa51%
26-Jun-2024 09:00Overcast Clouds26°C4 mph, S100%10000m1010hPa70%
26-Jun-2024 12:00Overcast Clouds23°C7 mph, SE98%10000m1012hPa83%
26-Jun-2024 15:00Few Clouds23°C7 mph, E14%10000m1012hPa84%
26-Jun-2024 18:00Clear Sky21°C2 mph, E7%10000m1012hPa92%
26-Jun-2024 21:00Clear Sky21°C2 mph, E0%10000m1012hPa93%
27-Jun-2024 00:00Clear Sky26°C2 mph, SE0%10000m1013hPa65%
27-Jun-2024 03:00Clear Sky32°C4 mph, SE0%10000m1011hPa45%
27-Jun-2024 06:00Clear Sky32°C2 mph, SE3%10000m1009hPa47%
27-Jun-2024 09:00Clear Sky27°C4 mph, SE7%10000m1010hPa70%
27-Jun-2024 12:00Few Clouds24°C7 mph, SE21%10000m1012hPa86%
27-Jun-2024 15:00Scattered Clouds22°C2 mph, SE32%10000m1012hPa96%
27-Jun-2024 18:00Few Clouds21°C2 mph, E19%10000m1012hPa95%
27-Jun-2024 21:00Scattered Clouds21°C2 mph, E27%10000m1012hPa92%
28-Jun-2024 00:00Few Clouds27°C2 mph, SE16%10000m1014hPa65%
28-Jun-2024 03:00Few Clouds32°C4 mph, S11%10000m1012hPa46%
28-Jun-2024 06:00Few Clouds32°C7 mph, SE11%10000m1010hPa52%
28-Jun-2024 09:00Scattered Clouds28°C4 mph, SE30%10000m1010hPa70%
28-Jun-2024 12:00Broken Clouds24°C7 mph, SE58%10000m1013hPa90%
28-Jun-2024 15:00Broken Clouds24°C7 mph, E76%10000m1013hPa90%
28-Jun-2024 18:00Broken Clouds23°C4 mph, SE71%10000m1012hPa96%
28-Jun-2024 21:00Broken Clouds23°C4 mph, SE79%10000m1012hPa94%
29-Jun-2024 00:00Broken Clouds27°C9 mph, SE71%10000m1014hPa74%
29-Jun-2024 03:00Few Clouds32°C11 mph, SE20%10000m1012hPa52%
29-Jun-2024 06:00Broken Clouds31°C16 mph, SE51%10000m1010hPa57%
29-Jun-2024 09:00Overcast Clouds26°C9 mph, SE100%10000m1011hPa76%
29-Jun-2024 12:00Broken Clouds24°C7 mph, SE84%10000m1013hPa87%
29-Jun-2024 15:00Scattered Clouds24°C7 mph, SE33%10000m1013hPa90%
29-Jun-2024 18:00Scattered Clouds23°C4 mph, SE33%10000m1012hPa98%
29-Jun-2024 21:00Scattered Clouds23°C4 mph, SE32%10000m1012hPa98%
30-Jun-2024 00:00Scattered Clouds27°C9 mph, SE30%10000m1013hPa77%
30-Jun-2024 03:00Scattered Clouds30°C13 mph, SE34%10000m1012hPa59%
30-Jun-2024 06:00Scattered Clouds30°C13 mph, SE45%10000m1010hPa62%
30-Jun-2024 09:00Light Rain26°C9 mph, SE79%10000m1010hPa78%
30-Jun-2024 12:00Overcast Clouds24°C7 mph, SE85%10000m1012hPa91%
30-Jun-2024 15:00Overcast Clouds24°C7 mph, SE100%10000m1012hPa93%
30-Jun-2024 18:00Overcast Clouds24°C4 mph, SE100%10000m1011hPa94%
30-Jun-2024 21:00Overcast Clouds23°C4 mph, SE100%10000m1011hPa98%